METAR Data
IDs: Format: Raw Decoded Include TAF

Data at: 2011 UTC 14 Dec 2018

KCFD 141955Z AUTO 30015G21KT 10SM OVC015 08/05 A2999 RMK AO2 T00750050
KCFD 141935Z AUTO 30011G20KT 10SM OVC015 07/05 A2999 RMK AO2 T00730048
KCFD 141915Z AUTO 30009KT 10SM OVC015 07/05 A2999 RMK AO2 T00730051
KCFD 141855Z AUTO 30012G18KT 10SM OVC015 07/05 A2999 RMK AO2 T00720049
KCFD 141835Z AUTO 29016G21KT 10SM OVC013 07/05 A2999 RMK AO2 T00720050
KCFD 141815Z AUTO 30015G19KT 10SM OVC013 07/06 A2999 RMK AO2 T00710055
KCFD 141755Z AUTO 30011G18KT 10SM OVC013 07/05 A3000 RMK AO2 T00710053 10071 20065
KCFD 141735Z AUTO 31015G20KT 10SM OVC013 07/05 A3000 RMK AO2 T00700051
KCFD 141715Z AUTO 30014G21KT 10SM OVC013 07/05 A3001 RMK AO2 T00700053
KCFD 141655Z AUTO 30013G19KT 10SM OVC013 07/06 A3001 RMK AO2 T00700055
KCFD 141635Z AUTO 30013G19KT 10SM OVC013 07/06 A3000 RMK AO2 T00700055
KCFD 141615Z AUTO 30011KT 10SM OVC013 07/06 A3001 RMK AO2 T00680055
KCFD 141555Z AUTO 31016G22KT 10SM OVC013 07/06 A3000 RMK AO2 T00670055
KCFD 141535Z AUTO 30015G20KT 10SM OVC011 07/06 A2999 RMK AO2 T00660057
KCFD 141515Z AUTO 30015G20KT 10SM OVC011 07/06 A2998 RMK AO2 T00660060
KCFD 141455Z AUTO 30011G19KT 10SM OVC011 07/07 A2995 RMK AO2 LTG DSNT NE T00680065
KCFD 141435Z AUTO 31017G26KT 10SM OVC011 07/06 A2995 RMK AO2 LTG DSNT NE T00670063
KCFD 141415Z AUTO 30015G23KT 10SM OVC009 07/07 A2994 RMK AO2 T00660066
KCFD 141355Z AUTO 30018G26KT 10SM OVC009 07/07 A2993 RMK AO2 T00660066
KCFD 141335Z AUTO 30012G19KT 10SM OVC009 07/07 A2992 RMK AO2 LTG DSNT NE T00660066
KCFD 141315Z AUTO 30015G23KT 10SM OVC009 07/07 A2990 RMK AO2 T00670067
KCFD 141255Z AUTO 30015G23KT 10SM OVC009 07/07 A2990 RMK AO2 LTG DSNT NE T00670067
KCFD 141235Z AUTO 30017G21KT 10SM OVC007 07/07 A2989 RMK AO2 T00680068
KCFD 141215Z AUTO 29013G19KT 4SM BR OVC005 07/07 A2988 RMK AO2 LTG DSNT NE T00670067
KCFD 141155Z AUTO 29012G16KT 3SM BR OVC005 07/07 A2987 RMK AO2 LTG DSNT NE P0003 60003 70003 T00650065 10065 20056
KCFD 141135Z AUTO 29011G18KT 4SM -DZ OVC005 06/06 A2986 RMK AO2 P0003 T00610061
KCFD 141115Z AUTO 28010G16KT 5SM -RA OVC007 06/06 A2985 RMK AO2 P0002 T00610061
KCFD 141055Z AUTO 28011G18KT 7SM OVC007 06/06 A2985 RMK AO2 T00630063
KCFD 141035Z AUTO 29011G19KT 10SM OVC009 06/06 A2984 RMK AO2 T00630063
KCFD 141015Z AUTO 29011G15KT 10SM OVC009 06/06 A2983 RMK AO2 T00620062
KCFD 140955Z AUTO 29010KT 7SM OVC009 06/06 A2983 RMK AO2 T00600060
KCFD 140935Z AUTO 29010G18KT 10SM OVC009 06/06 A2982 RMK AO2 T00600060
KCFD 140915Z AUTO 28012G16KT 10SM DZ OVC009 06/06 A2982 RMK AO2 LTG DSNT E T00600060
KCFD 140855Z AUTO 28010G15KT 10SM OVC009 06/06 A2982 RMK AO2 T00600060
KCFD 140835Z AUTO 27010G17KT 10SM OVC009 06/06 A2982 RMK AO2 T00600060
KCFD 140815Z AUTO 27009G17KT 5SM -RA OVC009 06/06 A2983 RMK AO2 T00570057
KCFD 140755Z AUTO 27013G18KT 7SM OVC009 06/06 A2983 RMK AO2 T00560056
KCFD 140735Z AUTO 27009G21KT 5SM -RA OVC009 06/06 A2983 RMK AO2 T00570057
KCFD 140715Z AUTO 26010G16KT 10SM OVC011 06/06 A2982 RMK AO2 T00600060
KCFD 140655Z AUTO 26012G16KT 10SM OVC011 06/06 A2982 RMK AO2 T00600060
KCFD 140635Z AUTO 25008G15KT 10SM OVC011 06/06 A2983 RMK AO2 T00600060
KCFD 140615Z AUTO 24008KT 7SM -RA OVC011 06/06 A2983 RMK AO2 T00600060
KCFD 140555Z AUTO 24009KT 5SM BR OVC011 06/06 A2982 RMK AO2 T00600060 10145 20060 402200060
KCFD 140535Z AUTO 24007KT 10SM OVC013 06/06 A2983 RMK AO2 T00600060
KCFD 140515Z AUTO 26007KT 7SM BKN013 OVC018 06/06 A2983 RMK AO2 T00610056
KCFD 140455Z AUTO 27010KT 10SM OVC017 07/04 A2984 RMK AO2 T00650040
KCFD 140435Z AUTO 26013G17KT 10SM OVC019 07/03 A2984 RMK AO2 T00700031
KCFD 140415Z AUTO 27009G19KT 10SM OVC021 07/03 A2984 RMK AO2 T00710030
KCFD 140355Z AUTO 27010G15KT 10SM OVC023 07/03 A2983 RMK AO2 T00730028
KCFD 140335Z AUTO 27008KT 10SM OVC025 08/03 A2983 RMK AO2 T00750027
KCFD 140315Z AUTO 27010G14KT 10SM OVC025 08/03 A2983 RMK AO2 T00770030
KCFD 140255Z AUTO 26009G15KT 10SM BKN027 08/03 A2983 RMK AO2 T00780030
KCFD 140235Z AUTO 28009G14KT 10SM CLR 08/03 A2982 RMK AO2 T00750027
KCFD 140215Z AUTO 28010G15KT 10SM CLR 08/03 A2982 RMK AO2 T00770026
KCFD 140155Z AUTO 29014G22KT 10SM CLR 08/03 A2982 RMK AO2 T00840025
KCFD 140135Z AUTO 29014G19KT 10SM CLR 09/03 A2982 RMK AO2 T00900029
KCFD 140115Z AUTO 28012G23KT 10SM CLR 10/03 A2982 RMK AO2 T00980031
KCFD 140055Z AUTO 28020G26KT 10SM CLR 11/05 A2980 RMK AO2 LTG DSNT NW T01120045
KCFD 140035Z AUTO 28014G21KT 10SM CLR 13/04 A2979 RMK AO2 T01340041
KCFD 140015Z AUTO 28013G18KT 10SM CLR 14/04 A2977 RMK AO2 T01380039
KCFD 132355Z AUTO 29009G14KT 10SM CLR 15/04 A2976 RMK AO2 T01460037 10220 20146
KCFD 132335Z AUTO 27010G16KT 10SM CLR 17/00 A2974 RMK AO2 T01651001
KCFD 132315Z AUTO 26010G18KT 10SM CLR 17/00 A2974 RMK AO2 T01741001
KCFD 132255Z AUTO 25007KT 10SM CLR 18/01 A2974 RMK AO2 T01840012
KCFD 132235Z AUTO 25009G15KT 10SM CLR 19/04 A2973 RMK AO2 T01910036
KCFD 132215Z AUTO 26010G15KT 10SM CLR 20/05 A2973 RMK AO2 T01960047
KCFD 132155Z AUTO 26011G16KT 10SM CLR 20/07 A2972 RMK AO2 T02000066
KCFD 132135Z AUTO 26010G21KT 10SM SCT095 20/06 A2972 RMK AO2 T02010060
KCFD 132115Z AUTO 27017G23KT 10SM BKN095 20/08 A2972 RMK AO2 LTG DSNT N AND NE T02030078
KCFD 132055Z AUTO 25012G21KT 10SM SCT095 SCT110 21/08 A2972 RMK AO2 LTG DSNT N T02050082
KCFD 132035Z AUTO 24013G18KT 10SM BKN095 21/09 A2971 RMK AO2 LTG DSNT N T02110091
KCFD 132015Z AUTO 25012G19KT 10SM BKN095 21/08 A2971 RMK AO2 T02060082
KCFD 131955Z AUTO 27011G17KT 10SM BKN095 21/10 A2970 RMK AO2 T02120102
KCFD 131935Z AUTO 26009G18KT 10SM SCT042 OVC095 22/10 A2970 RMK AO2 LTG DSNT N T02150102
KCFD 131915Z AUTO 26010G16KT 10SM SCT036 SCT042 BKN095 21/12 A2970 RMK AO2 LTG DSNT N T02120116
KCFD 131855Z AUTO 23009G14KT 10SM SCT036 22/13 A2970 RMK AO2 LTG DSNT N T02150130
KCFD 131835Z AUTO 23008KT 10SM SCT032 21/13 A2970 RMK AO2 T02110132
KCFD 131815Z AUTO 26007KT 210V280 10SM SCT027 SCT032 21/13 A2971 RMK AO2 LTG DSNT N T02100131
KCFD 131755Z AUTO 23009KT 10SM BKN026 BKN032 21/14 A2972 RMK AO2 T02090135 10211 20162
KCFD 131735Z AUTO 23011G14KT 10SM BKN024 21/14 A2973 RMK AO2 T02060141
KCFD 131715Z AUTO 23009KT 10SM BKN022 BKN028 20/15 A2973 RMK AO2 T02000148
KCFD 131655Z AUTO 21010G16KT 10SM BKN020 19/15 A2974 RMK AO2 LTG DSNT N T01940153
KCFD 131635Z AUTO 22007G14KT 10SM BKN017 OVC027 19/16 A2974 RMK AO2 T01930159
KCFD 131615Z AUTO 20006KT 10SM BKN015 BKN020 OVC027 19/17 A2975 RMK AO2 T01910168
KCFD 131555Z AUTO 20007KT 10SM BKN013 OVC021 19/17 A2976 RMK AO2 T01860173
KCFD 131535Z AUTO 19008KT 10SM SCT007 BKN011 OVC018 19/19 A2976 RMK AO2 T01880187
KCFD 131515Z AUTO 17006KT 10SM BKN007 BKN011 BKN035 18/18 A2976 RMK AO2 LTG DSNT N T01790179
KCFD 131455Z AUTO 15006KT 10SM BKN004 BKN008 17/17 A2975 RMK AO2 T01720172
KCFD 131435Z AUTO 15005KT 10SM OVC004 17/17 A2976 RMK AO2 T01700170
KCFD 131415Z AUTO 15005KT 10SM BKN004 BKN014 OVC035 17/17 A2976 RMK AO2 T01680168
KCFD 131355Z AUTO 14005KT 10SM BKN004 BKN008 OVC020 17/17 A2975 RMK AO2 T01650165
KCFD 131335Z AUTO 14006KT 10SM SCT004 BKN019 OVC024 17/17 A2976 RMK AO2 T01650165
KCFD 131315Z AUTO 15005KT 10SM BKN004 BKN017 OVC024 17/17 A2975 RMK AO2 T01660166
KCFD 131255Z AUTO 15005KT 10SM OVC004 17/17 A2975 RMK AO2 T01670167
KCFD 131235Z AUTO 15006KT 10SM OVC004 17/17 A2974 RMK AO2 LTG DSNT E T01660166
KCFD 131215Z AUTO 16006KT 10SM OVC004 17/17 A2974 RMK AO2 LTG DSNT E T01650165
KCFD 131155Z AUTO 14005KT 10SM OVC006 16/16 A2973 RMK AO2 LTG DSNT SE 60009 70009 T01620162 10174 20162
KCFD 131135Z AUTO 13008KT 10SM -DZ OVC006 17/17 A2972 RMK AO2 T01650165
KCFD 131115Z AUTO 15007KT 10SM OVC004 17/17 A2974 RMK AO2 LTG DSNT NE T01650165
KCFD 131055Z AUTO 15007KT 10SM BKN004 OVC010 17/17 A2974 RMK AO2 LTG DSNT NE AND E T01650165
KCFD 131035Z AUTO 15006KT 10SM BKN006 OVC010 17/17 A2973 RMK AO2 LTG DSNT NE THRU SE T01650165
KCFD 131015Z AUTO 15006KT 10SM BKN006 OVC015 17/17 A2974 RMK AO2 LTG DSNT NE THRU SE T01650165
KCFD 130955Z AUTO 14006KT 10SM SCT010 BKN015 OVC020 16/16 A2975 RMK AO2 LTG DSNT N AND NE P0003 T01630163
KCFD 130935Z AUTO 14005KT 10SM -TSDZ BKN010 OVC016 17/17 A2976 RMK AO2 LTG DSNT NE THRU S P0003 T01650165
KCFD 130915Z AUTO 15003KT 10SM VCTSRA BKN013 OVC018 16/16 A2976 RMK AO2 LTG DSNT NE THRU S P0002 T01630163
KCFD 130855Z AUTO 00000KT 4SM +RA OVC015 17/17 A2977 RMK AO2 LTG DSNT N THRU S P0006 60006 T01660166
KCFD 130835Z AUTO 16008G14KT 10SM VCTS SCT013 OVC017 17/17 A2978 RMK AO2 LTG DSNT ALQS T01670167
KCFD 130815Z AUTO 15007KT 10SM VCTSRA BKN012 OVC019 17/17 A2979 RMK AO2 LTG DSNT N THRU S T01710171